Time;durP1;ratioP1;P1;durP2;ratioP2;P2;SDS_P1;SDS_P2;PMS_P1;PMS_P2;Temp;Humidity;BMP_temperature;BMP_pressure;BME280_temperature;BME280_humidity;BME280_pressure;Samples;Min_cycle;Max_cycle;Signal;HPM_P1;HPM_P2
2022/12/11 00:00:58;;;;;;;4.00;1.35;;;;;;;;;;5068338;28;20080;-63
2022/12/11 00:03:28;;;;;;;1.00;0.95;;;;;;;;;;5058308;28;20051;-62
2022/12/11 00:05:56;;;;;;;0.22;0.22;;;;;;;;;;5068155;28;20417;-62
2022/12/11 00:08:25;;;;;;;0.52;0.52;;;;;;;;;;5063100;28;20155;-64
2022/12/11 00:10:53;;;;;;;1.13;1.13;;;;;;;;;;5068570;28;20105;-65
2022/12/11 00:13:21;;;;;;;0.95;0.85;;;;;;;;;;5061525;28;20049;-62
2022/12/11 00:15:50;;;;;;;1.92;1.83;;;;;;;;;;5068346;28;20044;-62
2022/12/11 00:18:18;;;;;;;5.63;1.70;;;;;;;;;;5062371;28;20057;-61
2022/12/11 00:20:48;;;;;;;1.38;1.27;;;;;;;;;;5056482;28;20057;-61
2022/12/11 00:23:16;;;;;;;0.35;0.35;;;;;;;;;;5061002;28;20116;-61
2022/12/11 00:25:45;;;;;;;2.83;0.47;;;;;;;;;;5057686;28;20056;-61
2022/12/11 00:28:14;;;;;;;1.83;1.50;;;;;;;;;;5068426;28;20361;-61
2022/12/11 00:30:42;;;;;;;5.18;0.85;;;;;;;;;;5063878;28;20075;-62
2022/12/11 00:33:11;;;;;;;1.23;1.10;;;;;;;;;;5061259;28;20041;-61
2022/12/11 00:35:40;;;;;;;7.18;2.60;;;;;;;;;;5069898;28;20489;-62
2022/12/11 00:38:14;;;;;;;1.67;0.82;;;;;;;;;;5063163;28;20055;-66
2022/12/11 00:40:43;;;;;;;0.35;0.35;;;;;;;;;;5046505;28;20067;-61
2022/12/11 00:43:11;;;;;;;0.85;0.68;;;;;;;;;;5066165;28;20127;-63
2022/12/11 00:45:41;;;;;;;1.33;0.70;;;;;;;;;;5061292;28;20044;-61
2022/12/11 00:48:10;;;;;;;0.40;0.40;;;;;;;;;;5067129;28;20049;-61
2022/12/11 00:50:38;;;;;;;0.52;0.43;;;;;;;;;;5066180;28;20075;-62
2022/12/11 00:53:07;;;;;;;0.50;0.50;;;;;;;;;;5059725;28;20132;-61
2022/12/11 00:55:38;;;;;;;0.70;0.65;;;;;;;;;;5069139;28;20048;-62
2022/12/11 00:58:08;;;;;;;0.77;0.65;;;;;;;;;;5058605;28;20040;-61
2022/12/11 01:00:36;;;;;;;10.63;1.30;;;;;;;;;;5062225;28;20076;-61
2022/12/11 01:03:04;;;;;;;5.95;0.75;;;;;;;;;;5066343;28;20366;-61
2022/12/11 01:05:33;;;;;;;0.70;0.60;;;;;;;;;;5066906;28;20158;-62
2022/12/11 01:08:01;;;;;;;1.88;0.75;;;;;;;;;;5066938;28;20052;-61
2022/12/11 01:10:29;;;;;;;1.33;0.88;;;;;;;;;;5071333;28;20055;-62
2022/12/11 01:13:00;;;;;;;0.20;0.20;;;;;;;;;;5060881;28;20076;-62
2022/12/11 01:15:31;;;;;;;3.28;0.50;;;;;;;;;;5058488;28;20639;-61
2022/12/11 01:18:00;;;;;;;0.68;0.68;;;;;;;;;;5075500;28;20048;-61
2022/12/11 01:20:30;;;;;;;2.85;1.55;;;;;;;;;;5071254;28;20127;-61
2022/12/11 01:22:59;;;;;;;1.00;1.00;;;;;;;;;;5065699;28;20052;-61
2022/12/11 01:25:29;;;;;;;0.40;0.40;;;;;;;;;;5072099;28;20060;-64
2022/12/11 01:27:58;;;;;;;1.00;1.00;;;;;;;;;;5060709;28;20408;-61
2022/12/11 01:30:27;;;;;;;0.52;0.52;;;;;;;;;;5067996;28;20215;-62
2022/12/11 01:32:55;;;;;;;1.60;0.77;;;;;;;;;;5067696;28;20048;-61
2022/12/11 01:35:24;;;;;;;2.83;0.70;;;;;;;;;;5074492;28;20115;-62
2022/12/11 01:37:52;;;;;;;2.85;1.48;;;;;;;;;;5080396;28;20492;-61
2022/12/11 01:40:21;;;;;;;2.03;1.30;;;;;;;;;;5068332;28;20072;-61
2022/12/11 01:42:50;;;;;;;2.35;0.77;;;;;;;;;;5060370;28;20049;-61
2022/12/11 01:45:27;;;;;;;0.82;0.82;;;;;;;;;;5068024;28;20422;-62
2022/12/11 01:48:01;;;;;;;5.00;0.88;;;;;;;;;;5064022;28;20522;-62
2022/12/11 01:50:31;;;;;;;1.17;0.80;;;;;;;;;;5071298;28;20447;-61
2022/12/11 01:53:00;;;;;;;2.72;0.85;;;;;;;;;;5074697;28;20119;-62
2022/12/11 01:55:28;;;;;;;0.77;0.45;;;;;;;;;;5062295;28;20443;-63
2022/12/11 01:57:56;;;;;;;0.40;0.40;;;;;;;;;;5054729;28;20052;-63
2022/12/11 02:00:26;;;;;;;0.40;0.40;;;;;;;;;;5062606;28;20056;-63
2022/12/11 02:02:54;;;;;;;0.40;0.40;;;;;;;;;;5059053;28;20128;-63
2022/12/11 02:05:23;;;;;;;0.88;0.85;;;;;;;;;;5063406;28;20386;-65
2022/12/11 02:07:53;;;;;;;0.30;0.30;;;;;;;;;;5068743;28;20127;-62
2022/12/11 02:10:23;;;;;;;0.30;0.30;;;;;;;;;;5061558;28;20167;-64
2022/12/11 02:12:55;;;;;;;1.13;1.02;;;;;;;;;;5065894;28;20413;-63
2022/12/11 02:15:31;;;;;;;1.77;1.45;;;;;;;;;;5065995;28;20071;-63
2022/12/11 02:18:04;;;;;;;0.77;0.77;;;;;;;;;;5065398;28;20070;-63
2022/12/11 02:20:35;;;;;;;2.28;1.27;;;;;;;;;;5071216;28;20071;-63
2022/12/11 02:23:14;;;;;;;0.50;0.50;;;;;;;;;;5059215;28;20546;-65
2022/12/11 02:25:48;;;;;;;1.50;0.88;;;;;;;;;;5074502;28;20048;-62
2022/12/11 02:28:21;;;;;;;0.40;0.40;;;;;;;;;;5065249;28;20497;-62
2022/12/11 02:30:52;;;;;;;1.92;0.65;;;;;;;;;;5058745;28;20405;-66
2022/12/11 02:33:22;;;;;;;0.50;0.50;;;;;;;;;;5060688;28;20486;-62
2022/12/11 02:35:51;;;;;;;1.20;1.08;;;;;;;;;;5059114;28;20048;-62
2022/12/11 02:38:21;;;;;;;0.73;0.73;;;;;;;;;;5049651;28;20055;-61
2022/12/11 02:40:52;;;;;;;0.50;0.50;;;;;;;;;;5046170;28;20041;-65
2022/12/11 02:43:23;;;;;;;1.25;1.15;;;;;;;;;;5058301;28;20539;-63
2022/12/11 02:45:52;;;;;;;3.20;1.13;;;;;;;;;;5065614;28;20067;-61
2022/12/11 02:48:23;;;;;;;0.73;0.73;;;;;;;;;;5062867;28;20052;-61
2022/12/11 02:50:53;;;;;;;0.70;0.65;;;;;;;;;;5052623;28;20124;-61
2022/12/11 02:53:23;;;;;;;0.35;0.35;;;;;;;;;;5067237;28;20131;-61
2022/12/11 02:55:54;;;;;;;0.60;0.60;;;;;;;;;;5069354;28;20052;-62
2022/12/11 02:58:27;;;;;;;3.47;1.25;;;;;;;;;;5061244;28;20051;-61
2022/12/11 03:00:55;;;;;;;1.67;0.80;;;;;;;;;;5067896;28;20049;-62
2022/12/11 03:03:24;;;;;;;1.27;1.23;;;;;;;;;;5061243;28;20053;-62
2022/12/11 03:05:53;;;;;;;0.30;0.30;;;;;;;;;;5055832;28;20327;-61
2022/12/11 03:08:21;;;;;;;1.15;0.60;;;;;;;;;;5065459;28;20138;-62
2022/12/11 03:10:50;;;;;;;1.85;1.27;;;;;;;;;;5073177;28;20040;-61
2022/12/11 03:13:21;;;;;;;0.60;0.60;;;;;;;;;;5053266;28;20053;-62
2022/12/11 03:15:57;;;;;;;1.05;0.93;;;;;;;;;;5071000;28;20048;-62
2022/12/11 03:18:31;;;;;;;0.25;0.25;;;;;;;;;;5051737;28;20052;-63
2022/12/11 03:21:03;;;;;;;3.17;0.40;;;;;;;;;;5052703;28;20079;-61
2022/12/11 03:23:34;;;;;;;1.08;0.75;;;;;;;;;;5055474;28;20076;-61
2022/12/11 03:26:04;;;;;;;2.28;0.88;;;;;;;;;;5057379;28;20054;-62
2022/12/11 03:28:36;;;;;;;0.98;0.90;;;;;;;;;;5066523;28;20451;-61
2022/12/11 03:31:09;;;;;;;1.15;1.15;;;;;;;;;;5069586;28;20481;-61
2022/12/11 03:33:40;;;;;;;0.43;0.43;;;;;;;;;;5063191;28;20067;-63
2022/12/11 03:36:10;;;;;;;1.63;1.52;;;;;;;;;;5065775;28;20437;-62
2022/12/11 03:38:42;;;;;;;0.47;0.30;;;;;;;;;;5070197;28;20052;-62
2022/12/11 03:41:11;;;;;;;0.63;0.63;;;;;;;;;;5052376;28;20091;-61
2022/12/11 03:43:41;;;;;;;0.47;0.47;;;;;;;;;;5067781;28;20041;-61
2022/12/11 03:46:13;;;;;;;0.25;0.25;;;;;;;;;;5071072;28;20067;-61
2022/12/11 03:48:44;;;;;;;0.70;0.70;;;;;;;;;;5064179;28;20367;-61
2022/12/11 03:51:13;;;;;;;0.60;0.60;;;;;;;;;;5069398;28;20507;-61
2022/12/11 03:53:41;;;;;;;1.88;1.58;;;;;;;;;;5068513;28;20069;-61
2022/12/11 03:56:11;;;;;;;0.75;0.47;;;;;;;;;;5057248;28;20048;-62
2022/12/11 03:58:39;;;;;;;0.50;0.50;;;;;;;;;;5057071;28;20521;-61
2022/12/11 04:01:10;;;;;;;3.85;1.15;;;;;;;;;;5054944;28;20049;-63
2022/12/11 04:03:39;;;;;;;0.47;0.47;;;;;;;;;;5053616;28;20052;-61
2022/12/11 04:06:08;;;;;;;0.50;0.50;;;;;;;;;;5064409;28;20080;-62
2022/12/11 04:08:36;;;;;;;1.13;1.13;;;;;;;;;;5066597;28;20094;-62
2022/12/11 04:15:00;;;;;;;1.13;0.47;;;;;;;;;;5057897;28;20127;-61
2022/12/11 04:16:40;;;;;;;0.28;0.28;;;;;;;;;;5065165;28;20055;-61
2022/12/11 04:24:41;;;;;;;1.55;0.80;;;;;;;;;;5054272;28;20048;-61
2022/12/11 04:27:09;;;;;;;0.38;0.38;;;;;;;;;;5064885;28;20085;-62
2022/12/11 04:29:38;;;;;;;2.08;1.42;;;;;;;;;;5058880;28;20056;-65
2022/12/11 04:32:07;;;;;;;0.30;0.30;;;;;;;;;;5062539;28;20055;-61
2022/12/11 04:34:36;;;;;;;0.30;0.30;;;;;;;;;;5067261;28;20135;-61
2022/12/11 04:37:04;;;;;;;0.85;0.57;;;;;;;;;;5067319;28;20316;-62
2022/12/11 04:39:32;;;;;;;0.70;0.70;;;;;;;;;;5058395;28;20053;-61
2022/12/11 04:42:01;;;;;;;0.30;0.30;;;;;;;;;;5060064;28;20048;-61
2022/12/11 04:44:29;;;;;;;2.58;0.75;;;;;;;;;;5057725;28;20044;-62
2022/12/11 04:46:57;;;;;;;0.52;0.40;;;;;;;;;;5064095;28;20041;-62
2022/12/11 04:49:27;;;;;;;1.13;0.82;;;;;;;;;;5051979;28;20048;-62
2022/12/11 04:51:55;;;;;;;3.50;0.75;;;;;;;;;;5061575;28;20053;-62
2022/12/11 04:54:23;;;;;;;0.52;0.52;;;;;;;;;;5053904;28;20480;-61
2022/12/11 04:56:52;;;;;;;0.20;0.20;;;;;;;;;;5058913;28;20053;-62
2022/12/11 04:59:20;;;;;;;0.60;0.60;;;;;;;;;;5065031;28;20052;-62
2022/12/11 05:01:48;;;;;;;0.40;0.40;;;;;;;;;;5060182;28;20061;-62
2022/12/11 05:04:17;;;;;;;0.35;0.35;;;;;;;;;;5057147;28;20134;-63
2022/12/11 05:06:46;;;;;;;0.80;0.45;;;;;;;;;;5071385;28;20048;-61
2022/12/11 05:09:15;;;;;;;0.32;0.32;;;;;;;;;;5058962;28;20055;-61
2022/12/11 05:11:43;;;;;;;1.35;0.57;;;;;;;;;;5069404;28;20045;-61
2022/12/11 05:14:11;;;;;;;2.58;0.68;;;;;;;;;;5069391;28;20131;-63
2022/12/11 05:16:40;;;;;;;1.20;0.93;;;;;;;;;;5072344;28;20504;-64
2022/12/11 05:19:08;;;;;;;1.63;1.25;;;;;;;;;;5072067;28;20110;-62
2022/12/11 05:21:36;;;;;;;0.88;0.88;;;;;;;;;;5067911;28;20041;-60
2022/12/11 05:24:06;;;;;;;0.90;0.90;;;;;;;;;;5073863;28;20489;-60
2022/12/11 05:26:35;;;;;;;3.05;1.40;;;;;;;;;;5068384;28;20048;-61
2022/12/11 05:29:04;;;;;;;1.67;0.55;;;;;;;;;;5064938;28;20056;-61
2022/12/11 05:31:32;;;;;;;0.30;0.30;;;;;;;;;;5071731;28;20048;-61
2022/12/11 05:34:01;;;;;;;2.92;0.77;;;;;;;;;;5066673;28;20409;-62
2022/12/11 05:36:31;;;;;;;0.25;0.25;;;;;;;;;;5068495;28;20041;-62
2022/12/11 05:39:00;;;;;;;0.55;0.40;;;;;;;;;;5074745;28;20055;-61
2022/12/11 05:41:31;;;;;;;0.30;0.30;;;;;;;;;;5068193;28;20056;-62
2022/12/11 05:43:59;;;;;;;1.52;1.20;;;;;;;;;;5071829;28;20049;-62
2022/12/11 05:46:28;;;;;;;5.88;0.65;;;;;;;;;;5067530;28;20057;-64
2022/12/11 05:48:59;;;;;;;0.88;0.43;;;;;;;;;;5058210;28;20044;-62
2022/12/11 05:51:27;;;;;;;0.22;0.22;;;;;;;;;;5072924;28;20461;-68
2022/12/11 05:53:56;;;;;;;0.22;0.22;;;;;;;;;;5072751;28;20071;-64
2022/12/11 05:56:26;;;;;;;1.05;0.50;;;;;;;;;;5071968;28;20398;-62
2022/12/11 05:58:56;;;;;;;3.80;0.57;;;;;;;;;;5060528;28;20060;-65
2022/12/11 06:01:26;;;;;;;0.32;0.32;;;;;;;;;;5064216;28;20045;-65
2022/12/11 06:03:54;;;;;;;0.47;0.47;;;;;;;;;;5079976;28;20057;-66
2022/12/11 06:06:23;;;;;;;2.08;1.27;;;;;;;;;;5073234;28;20048;-65
2022/12/11 06:08:52;;;;;;;1.50;0.77;;;;;;;;;;5059040;28;20049;-62
2022/12/11 06:11:20;;;;;;;0.73;0.40;;;;;;;;;;5064010;28;20053;-64
2022/12/11 06:13:51;;;;;;;1.50;1.08;;;;;;;;;;5054141;28;20496;-64
2022/12/11 06:16:21;;;;;;;3.20;0.88;;;;;;;;;;5067675;28;20044;-63
2022/12/11 06:18:50;;;;;;;0.30;0.30;;;;;;;;;;5061612;28;20068;-61
2022/12/11 06:21:22;;;;;;;0.43;0.43;;;;;;;;;;5065397;28;20471;-62
2022/12/11 06:23:51;;;;;;;0.30;0.30;;;;;;;;;;5065861;28;20412;-61
2022/12/11 06:26:19;;;;;;;0.77;0.45;;;;;;;;;;5062737;28;20064;-65
2022/12/11 06:28:48;;;;;;;0.35;0.35;;;;;;;;;;5070179;28;20093;-64
2022/12/11 06:31:17;;;;;;;1.05;0.93;;;;;;;;;;5073303;28;20048;-64
2022/12/11 06:33:47;;;;;;;1.63;1.52;;;;;;;;;;5059229;28;20048;-63
2022/12/11 06:36:17;;;;;;;0.50;0.50;;;;;;;;;;5065138;28;20041;-61
2022/12/11 06:38:46;;;;;;;0.88;0.88;;;;;;;;;;5069525;28;20060;-65
2022/12/11 06:41:15;;;;;;;1.08;0.52;;;;;;;;;;5069301;28;20051;-63
2022/12/11 06:43:43;;;;;;;1.15;0.73;;;;;;;;;;5065423;28;20552;-61
2022/12/11 06:46:12;;;;;;;0.20;0.20;;;;;;;;;;5066771;28;20505;-61
2022/12/11 06:48:41;;;;;;;1.30;1.20;;;;;;;;;;5074540;28;20050;-61
2022/12/11 06:51:12;;;;;;;2.47;1.08;;;;;;;;;;5066310;28;20079;-62
2022/12/11 06:53:40;;;;;;;0.20;0.20;;;;;;;;;;5072013;28;20064;-65
2022/12/11 06:56:09;;;;;;;0.47;0.47;;;;;;;;;;5064839;28;20053;-66
2022/12/11 06:58:38;;;;;;;4.78;0.70;;;;;;;;;;5064634;28;20048;-63
2022/12/11 07:01:14;;;;;;;1.23;0.98;;;;;;;;;;5072170;28;20040;-61
2022/12/11 07:03:42;;;;;;;0.57;0.55;;;;;;;;;;5072183;28;20044;-62
2022/12/11 07:06:12;;;;;;;0.20;0.20;;;;;;;;;;5070819;28;20127;-62
2022/12/11 07:08:41;;;;;;;0.30;0.30;;;;;;;;;;5060528;28;20056;-63
2022/12/11 07:11:10;;;;;;;0.47;0.47;;;;;;;;;;5062489;28;20052;-61
2022/12/11 07:13:39;;;;;;;0.88;0.50;;;;;;;;;;5064347;28;20049;-64
2022/12/11 07:16:09;;;;;;;0.30;0.30;;;;;;;;;;5067276;28;20072;-64
2022/12/11 07:18:40;;;;;;;1.92;1.20;;;;;;;;;;5069097;28;20550;-64
2022/12/11 07:21:08;;;;;;;1.85;0.80;;;;;;;;;;5066171;28;20213;-61
2022/12/11 07:23:39;;;;;;;0.30;0.30;;;;;;;;;;5067444;28;20075;-61
2022/12/11 07:26:07;;;;;;;0.60;0.60;;;;;;;;;;5067077;28;20048;-61
2022/12/11 07:28:36;;;;;;;3.60;0.70;;;;;;;;;;5058664;28;20049;-63
2022/12/11 07:31:07;;;;;;;0.98;0.93;;;;;;;;;;5062812;28;20083;-63
2022/12/11 07:33:36;;;;;;;0.52;0.52;;;;;;;;;;5065509;28;20080;-68
2022/12/11 07:36:05;;;;;;;3.10;1.30;;;;;;;;;;5051661;28;20056;-64
2022/12/11 07:38:34;;;;;;;0.63;0.52;;;;;;;;;;5056221;28;20044;-64
2022/12/11 07:41:04;;;;;;;1.33;1.23;;;;;;;;;;5059466;28;20151;-61
2022/12/11 07:43:32;;;;;;;0.75;0.75;;;;;;;;;;5055057;28;20424;-63
2022/12/11 07:46:02;;;;;;;0.82;0.82;;;;;;;;;;5052556;28;20841;-70
2022/12/11 07:48:30;;;;;;;5.45;0.73;;;;;;;;;;5060260;28;20048;-62
2022/12/11 07:51:08;;;;;;;1.20;1.17;;;;;;;;;;5057858;28;20052;-61
2022/12/11 07:53:36;;;;;;;0.55;0.45;;;;;;;;;;5064412;28;20113;-65
2022/12/11 07:56:06;;;;;;;2.03;0.40;;;;;;;;;;5065813;28;20070;-63
2022/12/11 07:58:37;;;;;;;0.30;0.30;;;;;;;;;;5057076;28;20048;-64
2022/12/11 08:01:06;;;;;;;1.20;0.50;;;;;;;;;;5047492;28;20056;-62
2022/12/11 08:03:34;;;;;;;3.13;0.88;;;;;;;;;;5054239;28;20104;-69
2022/12/11 08:06:02;;;;;;;1.40;1.27;;;;;;;;;;5054192;28;20044;-63
2022/12/11 08:08:31;;;;;;;0.28;0.28;;;;;;;;;;5052375;28;20750;-70
2022/12/11 08:11:01;;;;;;;0.28;0.28;;;;;;;;;;5056152;28;20044;-63
2022/12/11 08:13:31;;;;;;;1.17;0.88;;;;;;;;;;5063807;28;20057;-62
2022/12/11 08:16:00;;;;;;;0.95;0.88;;;;;;;;;;5076125;28;20055;-62
2022/12/11 08:18:29;;;;;;;0.52;0.52;;;;;;;;;;5059170;28;20496;-64
2022/12/11 08:20:57;;;;;;;0.40;0.40;;;;;;;;;;5058912;28;20409;-65
2022/12/11 08:23:26;;;;;;;0.40;0.40;;;;;;;;;;5056525;28;20049;-65
2022/12/11 08:25:54;;;;;;;0.40;0.40;;;;;;;;;;5058242;28;20044;-63
2022/12/11 08:28:22;;;;;;;1.60;0.75;;;;;;;;;;5041908;28;20049;-65
2022/12/11 08:30:53;;;;;;;0.60;0.60;;;;;;;;;;5043854;28;20360;-62
2022/12/11 08:33:21;;;;;;;0.20;0.20;;;;;;;;;;5041848;28;20742;-65
2022/12/11 08:35:50;;;;;;;1.30;0.85;;;;;;;;;;5045358;28;20049;-62
2022/12/11 08:38:18;;;;;;;0.20;0.20;;;;;;;;;;5039591;28;20049;-65
2022/12/11 08:40:52;;;;;;;1.50;0.95;;;;;;;;;;5014543;28;20183;-64
2022/12/11 08:43:21;;;;;;;0.40;0.40;;;;;;;;;;5045282;28;20085;-64
2022/12/11 08:45:49;;;;;;;0.55;0.55;;;;;;;;;;5053005;28;20478;-63
2022/12/11 08:48:19;;;;;;;1.20;0.85;;;;;;;;;;5050188;28;20045;-64
2022/12/11 08:50:47;;;;;;;0.98;0.68;;;;;;;;;;5052812;28;20167;-66
2022/12/11 08:53:16;;;;;;;0.77;0.77;;;;;;;;;;5045610;28;20053;-62
2022/12/11 08:55:44;;;;;;;0.70;0.60;;;;;;;;;;5040992;28;20466;-62
2022/12/11 08:58:13;;;;;;;0.80;0.73;;;;;;;;;;5053848;28;20425;-62
2022/12/11 09:00:41;;;;;;;0.30;0.30;;;;;;;;;;5061587;28;20645;-62
2022/12/11 09:03:10;;;;;;;1.90;1.38;;;;;;;;;;5051061;28;20044;-63
2022/12/11 09:05:41;;;;;;;0.30;0.30;;;;;;;;;;5052810;28;20045;-64
2022/12/11 09:08:10;;;;;;;5.90;1.60;;;;;;;;;;5054455;28;20044;-62
2022/12/11 09:10:38;;;;;;;0.35;0.35;;;;;;;;;;5053376;28;20041;-63
2022/12/11 09:13:06;;;;;;;1.85;1.67;;;;;;;;;;5050385;28;20052;-62
2022/12/11 09:15:37;;;;;;;0.40;0.40;;;;;;;;;;5047626;28;20165;-63
2022/12/11 09:18:05;;;;;;;0.35;0.35;;;;;;;;;;5043433;28;20048;-71
2022/12/11 09:20:34;;;;;;;3.05;1.27;;;;;;;;;;5046331;28;20049;-64
2022/12/11 09:23:03;;;;;;;0.40;0.40;;;;;;;;;;5050175;28;20049;-67
2022/12/11 09:25:32;;;;;;;0.82;0.60;;;;;;;;;;5048386;28;20448;-63
2022/12/11 09:28:00;;;;;;;0.55;0.55;;;;;;;;;;5067971;28;20098;-63
2022/12/11 09:30:28;;;;;;;0.20;0.20;;;;;;;;;;5069528;28;20048;-62
2022/12/11 09:32:57;;;;;;;0.63;0.63;;;;;;;;;;5070612;28;20072;-65
2022/12/11 09:35:26;;;;;;;0.63;0.45;;;;;;;;;;5068383;28;20080;-67
2022/12/11 09:37:54;;;;;;;1.27;1.17;;;;;;;;;;5068490;28;20049;-63
2022/12/11 09:40:24;;;;;;;0.47;0.47;;;;;;;;;;5062784;28;20062;-64
2022/12/11 09:42:55;;;;;;;1.73;0.65;;;;;;;;;;5064029;28;20481;-64
2022/12/11 09:45:23;;;;;;;1.40;1.00;;;;;;;;;;5064635;28;20056;-65
2022/12/11 09:47:53;;;;;;;0.40;0.40;;;;;;;;;;5064433;28;20052;-64
2022/12/11 09:50:23;;;;;;;0.60;0.60;;;;;;;;;;5067871;28;20147;-65
2022/12/11 09:53:01;;;;;;;0.55;0.47;;;;;;;;;;5065643;28;20041;-67
2022/12/11 09:55:35;;;;;;;0.60;0.60;;;;;;;;;;5067255;28;20137;-65
2022/12/11 09:58:07;;;;;;;0.75;0.73;;;;;;;;;;5069135;28;20562;-66
2022/12/11 10:00:38;;;;;;;4.55;2.22;;;;;;;;;;5067739;28;20052;-64
2022/12/11 10:03:21;;;;;;;2.95;1.25;;;;;;;;;;5070517;28;20131;-64
2022/12/11 10:05:54;;;;;;;2.17;0.85;;;;;;;;;;5067047;28;20055;-62
2022/12/11 10:08:32;;;;;;;0.80;0.63;;;;;;;;;;5066321;28;20047;-62
2022/12/11 10:11:06;;;;;;;0.38;0.38;;;;;;;;;;5062448;28;20054;-61
2022/12/11 10:13:39;;;;;;;4.38;0.82;;;;;;;;;;5069225;28;20054;-63
2022/12/11 10:16:12;;;;;;;0.85;0.85;;;;;;;;;;5073152;28;20058;-61
2022/12/11 10:18:41;;;;;;;0.30;0.30;;;;;;;;;;5059834;28;20044;-66
2022/12/11 10:21:10;;;;;;;0.40;0.40;;;;;;;;;;5065671;28;20301;-72
2022/12/11 10:23:41;;;;;;;0.60;0.60;;;;;;;;;;5065983;28;20044;-63
2022/12/11 10:26:13;;;;;;;2.15;1.15;;;;;;;;;;5063904;28;20045;-62
2022/12/11 10:28:41;;;;;;;1.15;1.05;;;;;;;;;;5043229;28;20056;-65
2022/12/11 10:31:14;;;;;;;0.85;0.70;;;;;;;;;;5055136;28;20413;-62
2022/12/11 10:33:46;;;;;;;2.67;0.50;;;;;;;;;;5046884;28;20146;-62
2022/12/11 10:36:19;;;;;;;0.30;0.30;;;;;;;;;;5047572;28;20313;-63
2022/12/11 10:38:48;;;;;;;4.63;1.23;;;;;;;;;;5049720;28;20447;-63
2022/12/11 10:41:19;;;;;;;0.82;0.82;;;;;;;;;;5043179;28;20143;-65
2022/12/11 10:43:49;;;;;;;0.30;0.30;;;;;;;;;;5056047;28;20048;-63
2022/12/11 10:46:21;;;;;;;4.28;1.10;;;;;;;;;;5053707;28;20049;-62
2022/12/11 10:48:52;;;;;;;0.30;0.30;;;;;;;;;;5054511;28;20052;-67
2022/12/11 10:51:21;;;;;;;0.93;0.90;;;;;;;;;;5047861;28;20053;-63
2022/12/11 10:53:51;;;;;;;1.33;0.85;;;;;;;;;;5046824;28;20144;-64
2022/12/11 10:56:28;;;;;;;4.32;0.47;;;;;;;;;;5039976;28;20054;-67
2022/12/11 10:58:57;;;;;;;1.23;0.30;;;;;;;;;;5042363;28;20136;-66
2022/12/11 11:01:26;;;;;;;0.40;0.40;;;;;;;;;;5047841;28;20045;-62
2022/12/11 11:03:57;;;;;;;0.43;0.43;;;;;;;;;;5049267;28;20131;-62
2022/12/11 11:06:26;;;;;;;0.30;0.30;;;;;;;;;;5043767;28;20502;-67
2022/12/11 11:08:55;;;;;;;0.65;0.65;;;;;;;;;;5041634;28;20051;-62
2022/12/11 11:11:26;;;;;;;1.08;1.02;;;;;;;;;;5048071;28;20507;-65
2022/12/11 11:14:06;;;;;;;0.50;0.43;;;;;;;;;;5050674;28;20493;-63
2022/12/11 11:16:37;;;;;;;1.55;1.10;;;;;;;;;;5037482;28;20049;-61
2022/12/11 11:19:07;;;;;;;0.40;0.40;;;;;;;;;;5044033;28;20485;-62
2022/12/11 11:21:35;;;;;;;1.05;0.88;;;;;;;;;;5044188;28;20068;-65
2022/12/11 11:24:04;;;;;;;0.65;0.43;;;;;;;;;;5044716;28;20052;-61
2022/12/11 11:26:34;;;;;;;0.70;0.70;;;;;;;;;;5051366;28;20048;-64
2022/12/11 11:29:26;;;;;;;0.20;0.20;;;;;;;;;;5057177;28;20136;-65
2022/12/11 11:31:54;;;;;;;0.90;0.80;;;;;;;;;;5038017;28;20053;-63
2022/12/11 11:34:24;;;;;;;1.17;1.00;;;;;;;;;;5056043;28;20041;-62
2022/12/11 11:36:57;;;;;;;0.50;0.50;;;;;;;;;;5050812;28;20053;-62
2022/12/11 11:39:28;;;;;;;2.55;0.65;;;;;;;;;;5053109;28;20083;-66
2022/12/11 11:42:01;;;;;;;1.10;1.10;;;;;;;;;;5053811;28;20048;-64
2022/12/11 11:44:33;;;;;;;2.70;1.88;;;;;;;;;;5060792;28;20041;-61
2022/12/11 11:47:05;;;;;;;3.03;2.70;;;;;;;;;;5054577;28;20060;-62
2022/12/11 11:49:42;;;;;;;1.25;0.93;;;;;;;;;;5051622;28;20049;-68
2022/12/11 11:52:13;;;;;;;0.82;0.82;;;;;;;;;;5042005;28;20531;-61
2022/12/11 11:54:43;;;;;;;2.03;1.67;;;;;;;;;;5053755;28;20154;-68
2022/12/11 11:57:14;;;;;;;3.90;0.80;;;;;;;;;;5048325;28;20056;-65
2022/12/11 11:59:48;;;;;;;0.57;0.57;;;;;;;;;;5049024;28;20131;-68
2022/12/11 12:02:17;;;;;;;0.20;0.20;;;;;;;;;;5052551;28;20052;-66
2022/12/11 12:04:48;;;;;;;2.60;1.13;;;;;;;;;;5038508;28;20056;-65
2022/12/11 12:07:24;;;;;;;0.30;0.30;;;;;;;;;;5038928;28;20548;-62
2022/12/11 12:09:55;;;;;;;1.30;0.85;;;;;;;;;;5033872;28;20485;-62
2022/12/11 12:12:29;;;;;;;1.85;1.25;;;;;;;;;;5046619;28;20049;-63
2022/12/11 12:15:18;;;;;;;0.57;0.57;;;;;;;;;;5041445;28;20573;-62
2022/12/11 12:17:51;;;;;;;0.40;0.40;;;;;;;;;;5049314;28;20076;-62
2022/12/11 12:20:31;;;;;;;0.40;0.40;;;;;;;;;;5046994;28;20520;-61
2022/12/11 12:23:07;;;;;;;0.40;0.40;;;;;;;;;;5047951;28;20060;-62
2022/12/11 12:25:38;;;;;;;0.50;0.50;;;;;;;;;;5048822;28;20059;-62
2022/12/11 12:28:14;;;;;;;0.60;0.60;;;;;;;;;;5048775;28;20061;-66
2022/12/11 12:30:49;;;;;;;0.85;0.73;;;;;;;;;;5034140;28;20131;-67
2022/12/11 12:33:22;;;;;;;0.40;0.40;;;;;;;;;;5047338;28;20122;-70
2022/12/11 12:35:55;;;;;;;0.45;0.45;;;;;;;;;;5040747;28;20049;-62
2022/12/11 12:38:27;;;;;;;3.28;1.02;;;;;;;;;;5038596;28;20040;-73
2022/12/11 12:41:00;;;;;;;1.08;0.98;;;;;;;;;;5040109;28;20049;-63
2022/12/11 12:43:37;;;;;;;0.60;0.60;;;;;;;;;;5048058;28;20060;-65
2022/12/11 12:46:11;;;;;;;0.32;0.32;;;;;;;;;;5049886;28;20053;-64
2022/12/11 12:48:40;;;;;;;1.65;1.05;;;;;;;;;;5042850;28;20619;-62
2022/12/11 12:51:13;;;;;;;0.22;0.22;;;;;;;;;;5040083;28;20592;-62
2022/12/11 12:53:44;;;;;;;0.45;0.45;;;;;;;;;;5041413;28;20405;-63
2022/12/11 12:56:13;;;;;;;0.93;0.60;;;;;;;;;;5056103;28;20051;-63
2022/12/11 12:58:42;;;;;;;0.57;0.57;;;;;;;;;;5049426;28;20295;-61
2022/12/11 13:01:16;;;;;;;1.55;0.50;;;;;;;;;;5051155;28;20048;-61
2022/12/11 13:03:53;;;;;;;0.47;0.47;;;;;;;;;;5049265;28;20133;-65
2022/12/11 13:06:29;;;;;;;0.20;0.20;;;;;;;;;;5046988;28;20509;-67
2022/12/11 13:08:58;;;;;;;0.60;0.60;;;;;;;;;;5042235;28;20132;-68
2022/12/11 13:11:32;;;;;;;0.55;0.32;;;;;;;;;;5045625;28;20049;-62
2022/12/11 13:14:02;;;;;;;0.75;0.75;;;;;;;;;;5049258;28;20063;-62
2022/12/11 13:16:37;;;;;;;0.70;0.70;;;;;;;;;;5038681;28;20076;-63
2022/12/11 13:19:17;;;;;;;0.47;0.47;;;;;;;;;;5035204;28;20048;-66
2022/12/11 13:21:55;;;;;;;0.35;0.35;;;;;;;;;;5043975;28;20045;-61
2022/12/11 13:24:28;;;;;;;0.45;0.45;;;;;;;;;;5035409;28;20045;-69
2022/12/11 13:26:56;;;;;;;2.05;1.20;;;;;;;;;;5049083;28;20448;-65
2022/12/11 13:29:33;;;;;;;0.82;0.82;;;;;;;;;;5046479;28;20052;-62
2022/12/11 13:32:03;;;;;;;0.52;0.52;;;;;;;;;;5044210;28;20056;-67
2022/12/11 13:34:33;;;;;;;3.95;1.15;;;;;;;;;;5049585;28;20041;-65
2022/12/11 13:37:02;;;;;;;0.95;0.85;;;;;;;;;;5042765;28;20374;-63
2022/12/11 13:39:32;;;;;;;1.85;0.70;;;;;;;;;;5055223;28;20091;-62
2022/12/11 13:42:02;;;;;;;0.57;0.57;;;;;;;;;;5044242;28;20045;-62
2022/12/11 13:44:36;;;;;;;1.17;0.82;;;;;;;;;;5050522;28;20067;-62
2022/12/11 13:47:07;;;;;;;0.50;0.50;;;;;;;;;;5046316;28;20048;-62
2022/12/11 13:49:36;;;;;;;0.77;0.77;;;;;;;;;;5035322;28;20075;-63
2022/12/11 13:52:06;;;;;;;0.75;0.75;;;;;;;;;;5046672;28;20053;-63
2022/12/11 13:54:36;;;;;;;0.85;0.40;;;;;;;;;;5039245;28;20108;-63
2022/12/11 13:57:14;;;;;;;0.40;0.40;;;;;;;;;;5043681;28;20044;-65
2022/12/11 13:59:43;;;;;;;0.80;0.70;;;;;;;;;;5036889;28;20065;-62
2022/12/11 14:02:16;;;;;;;1.45;1.38;;;;;;;;;;5043281;28;20055;-69
2022/12/11 14:04:44;;;;;;;0.30;0.30;;;;;;;;;;5039960;28;20052;-62
2022/12/11 14:07:13;;;;;;;0.20;0.20;;;;;;;;;;5047961;28;20083;-62
2022/12/11 14:09:44;;;;;;;0.40;0.40;;;;;;;;;;5045836;28;20434;-63
2022/12/11 14:12:17;;;;;;;0.82;0.82;;;;;;;;;;5049519;28;20056;-64
2022/12/11 14:14:48;;;;;;;0.65;0.65;;;;;;;;;;5040361;28;20068;-65
2022/12/11 14:17:21;;;;;;;0.80;0.80;;;;;;;;;;5048207;28;20122;-62
2022/12/11 14:19:50;;;;;;;0.35;0.35;;;;;;;;;;5044437;28;20573;-62
2022/12/11 14:22:19;;;;;;;0.45;0.43;;;;;;;;;;5048920;28;20428;-65
2022/12/11 14:24:51;;;;;;;0.40;0.40;;;;;;;;;;5043801;28;20620;-65
2022/12/11 14:27:20;;;;;;;0.30;0.30;;;;;;;;;;5053406;28;20079;-68
2022/12/11 14:29:49;;;;;;;0.32;0.32;;;;;;;;;;5063116;28;20044;-63
2022/12/11 14:32:21;;;;;;;0.93;0.68;;;;;;;;;;5065657;28;20063;-64
2022/12/11 14:34:50;;;;;;;1.48;0.65;;;;;;;;;;5068815;28;20045;-69
2022/12/11 14:37:20;;;;;;;0.28;0.28;;;;;;;;;;5066991;28;20048;-63
2022/12/11 14:39:53;;;;;;;0.52;0.52;;;;;;;;;;5060199;28;20056;-65
2022/12/11 14:42:24;;;;;;;0.57;0.57;;;;;;;;;;5063154;28;20493;-65
2022/12/11 14:44:54;;;;;;;1.13;0.65;;;;;;;;;;5059396;28;20084;-64
2022/12/11 14:47:25;;;;;;;0.70;0.70;;;;;;;;;;5063474;28;20056;-62
2022/12/11 14:49:58;;;;;;;1.15;1.05;;;;;;;;;;5065747;28;20522;-65
2022/12/11 14:52:28;;;;;;;0.30;0.30;;;;;;;;;;5064828;28;20087;-67
2022/12/11 14:55:00;;;;;;;2.20;0.40;;;;;;;;;;5060470;28;20053;-63
2022/12/11 14:57:30;;;;;;;0.85;0.85;;;;;;;;;;5062964;28;20386;-63
2022/12/11 14:59:59;;;;;;;0.85;0.68;;;;;;;;;;5071681;28;20440;-63
2022/12/11 15:02:31;;;;;;;0.40;0.32;;;;;;;;;;5057670;28;20450;-62
2022/12/11 15:05:06;;;;;;;0.60;0.60;;;;;;;;;;5066385;28;20059;-69
2022/12/11 15:07:34;;;;;;;0.40;0.40;;;;;;;;;;5060357;28;20056;-64
2022/12/11 15:10:03;;;;;;;0.50;0.50;;;;;;;;;;5065436;28;20056;-62